KPTS

Atkinson Municipal Airport

Pittsburg, Kansas, USA
METAR KPTS 220415Z AUTO 16012KT 10SM CLR 04/M04 A2985 RMK AO2 T00371040
Observed Flight Rules
Jan-22 @ 04:15 UTC (21 minutes ago) Visual Flight Rules
Wind Visibility Clouds
160° at 12 knots 10 miles
  • Clear skies
Temperatures Readings
Current 4°C / 39°F
Dewpoint -4°C / 25°F
Humidity 56%
Altimeter 29.85" Hg
Pressure 1010.82 hPa
Elevation 290
METAR KPTS 220415Z AUTO 16012KT 10SM CLR 04/M04 A2985 RMK AO2 T00371040
Observed Flight Rules
Jan-22 @ 04:15 UTC
(21 minutes ago)
VFR
Wind Visibility
160° at 12 knots 10 miles
Clouds
  • Clear skies
Temperature Dewpoint
4°C / 39°F -4°C / 25°F
Humidity Altimeter Pressure
56% 29.85" Hg 1010.82 hPa